Weather at London Heathrow Airport

Public forecast

Using degrees Celsius for public forecast. Weather courtesy of forecast.io.

Current aviation weather report (METAR) for London Heathrow Airport

Retrieved 2021/07/28 21:50 UTC (32 minutes ago):

EGLL 282150Z AUTO 24010KT 9999 NCD 14/11 Q1008 NOSIG

Aviation forecast (TAF) for London Heathrow Airport

Retrieved 2021/07/28 18:00 UTC (4 hours ago):

TAF EGLL 281705Z 2818/2924 24010KT 9999 SCT040 PROB30 TEMPO 2818/2820 24016G26KT 4000 SHRA